createdAt,value
2018-12-02T00:00:57.593Z,2.73
2018-12-02T00:03:24.850Z,3.40
2018-12-02T00:05:52.485Z,3.33
2018-12-02T00:08:20.175Z,3.83
2018-12-02T00:10:47.757Z,3.07
2018-12-02T00:13:15.917Z,3.73
2018-12-02T00:15:43.205Z,3.30
2018-12-02T00:18:10.586Z,2.90
2018-12-02T00:20:38.001Z,3.47
2018-12-02T00:23:05.384Z,2.90
2018-12-02T00:25:32.677Z,2.97
2018-12-02T00:28:00.379Z,3.30
2018-12-02T00:30:27.930Z,3.67
2018-12-02T00:32:55.281Z,3.17
2018-12-02T00:35:22.723Z,3.13
2018-12-02T00:37:50.488Z,3.47
2018-12-02T00:40:18.136Z,3.20
2018-12-02T00:42:46.094Z,2.90
2018-12-02T00:45:13.464Z,3.27
2018-12-02T00:47:40.930Z,3.20
2018-12-02T00:50:08.425Z,2.93
2018-12-02T00:52:35.754Z,2.93
2018-12-02T00:55:03.268Z,3.27
2018-12-02T00:57:31.100Z,3.13
2018-12-02T00:59:58.596Z,2.80
2018-12-02T01:02:26.162Z,3.53
2018-12-02T01:04:53.532Z,3.47
2018-12-02T01:07:20.821Z,3.00
2018-12-02T01:09:48.200Z,3.03
2018-12-02T01:12:15.574Z,2.90
2018-12-02T01:14:42.840Z,2.80
2018-12-02T01:17:11.049Z,2.63
2018-12-02T01:19:38.405Z,3.10
2018-12-02T01:22:05.893Z,2.90
2018-12-02T01:24:33.243Z,2.80
2018-12-02T01:27:00.893Z,2.93
2018-12-02T01:29:28.147Z,3.00
2018-12-02T01:31:55.493Z,2.60
2018-12-02T01:34:22.934Z,2.73
2018-12-02T01:36:50.300Z,3.23
2018-12-02T01:39:17.867Z,3.00
2018-12-02T01:41:45.646Z,2.60
2018-12-02T01:44:13.018Z,2.87
2018-12-02T01:46:40.481Z,2.93
2018-12-02T01:49:07.855Z,3.17
2018-12-02T01:51:35.252Z,3.07
2018-12-02T01:54:02.826Z,2.70
2018-12-02T01:56:30.099Z,2.53
2018-12-02T01:58:57.591Z,2.37
2018-12-02T02:01:24.867Z,2.30
2018-12-02T02:03:52.503Z,2.60
2018-12-02T02:06:19.800Z,2.73
2018-12-02T02:08:47.592Z,2.47
2018-12-02T02:11:14.830Z,2.47
2018-12-02T02:13:42.589Z,2.80
2018-12-02T02:16:09.941Z,2.57
2018-12-02T02:18:37.634Z,2.30
2018-12-02T02:21:05.026Z,2.50
2018-12-02T02:23:32.316Z,2.33
2018-12-02T02:25:59.748Z,2.23
2018-12-02T02:28:27.762Z,2.40
2018-12-02T02:30:55.255Z,2.13
2018-12-02T02:33:22.640Z,2.37
2018-12-02T02:35:49.932Z,2.40
2018-12-02T02:38:17.294Z,2.40
2018-12-02T02:40:45.225Z,2.23
2018-12-02T02:43:12.661Z,2.00
2018-12-02T02:45:40.035Z,2.37
2018-12-02T02:48:07.585Z,1.80
2018-12-02T02:50:34.916Z,1.80
2018-12-02T02:53:02.185Z,2.20
2018-12-02T02:55:29.832Z,2.07
2018-12-02T02:57:57.729Z,2.07
2018-12-02T03:00:25.509Z,2.10
2018-12-02T03:02:52.777Z,2.03
2018-12-02T03:05:20.611Z,2.07
2018-12-02T03:07:48.033Z,1.87
2018-12-02T03:10:15.438Z,1.73
2018-12-02T03:12:42.889Z,2.20
2018-12-02T03:15:10.809Z,1.80
2018-12-02T03:17:38.583Z,1.80
2018-12-02T03:20:06.059Z,1.70
2018-12-02T03:22:33.407Z,1.80
2018-12-02T03:25:00.937Z,1.70
2018-12-02T03:27:28.267Z,1.70
2018-12-02T03:29:55.772Z,1.60
2018-12-02T03:32:23.198Z,1.70
2018-12-02T03:34:50.684Z,2.00
2018-12-02T03:37:18.466Z,1.70
2018-12-02T03:39:45.864Z,1.90
2018-12-02T03:42:13.250Z,1.70
2018-12-02T03:44:40.651Z,1.63
2018-12-02T03:47:08.257Z,1.53
2018-12-02T03:49:35.689Z,1.77
2018-12-02T03:52:03.324Z,1.63
2018-12-02T03:54:30.972Z,1.80
2018-12-02T03:56:58.196Z,1.73
2018-12-02T03:59:25.529Z,1.80
2018-12-02T04:01:52.927Z,1.60
2018-12-02T04:04:20.417Z,1.73
2018-12-02T04:06:47.872Z,1.73
2018-12-02T04:09:15.280Z,1.67
2018-12-02T04:11:42.608Z,1.50
2018-12-02T04:14:09.962Z,1.70
2018-12-02T04:16:37.230Z,1.80
2018-12-02T04:19:04.755Z,1.20
2018-12-02T04:21:32.187Z,1.80
2018-12-02T04:23:59.493Z,1.60
2018-12-02T04:26:26.996Z,1.73
2018-12-02T04:28:54.910Z,1.80
2018-12-02T04:31:22.618Z,1.37
2018-12-02T04:33:50.028Z,1.57
2018-12-02T04:36:17.565Z,1.17
2018-12-02T04:38:44.823Z,1.37
2018-12-02T04:41:12.526Z,1.37
2018-12-02T04:43:39.797Z,1.40
2018-12-02T04:46:07.215Z,1.30
2018-12-02T04:48:34.889Z,1.60
2018-12-02T04:51:02.260Z,1.60
2018-12-02T04:53:29.872Z,1.30
2018-12-02T04:55:57.284Z,1.30
2018-12-02T04:58:24.693Z,1.40
2018-12-02T05:00:52.127Z,1.30
2018-12-02T05:03:19.528Z,1.37
2018-12-02T05:05:46.885Z,1.43
2018-12-02T05:08:14.743Z,1.20
2018-12-02T05:10:42.056Z,1.70
2018-12-02T05:13:09.351Z,1.20
2018-12-02T05:15:36.646Z,1.40
2018-12-02T05:18:04.006Z,1.13
2018-12-02T05:20:31.435Z,1.30
2018-12-02T05:22:58.778Z,1.17
2018-12-02T05:25:26.098Z,1.30
2018-12-02T05:27:53.433Z,1.20
2018-12-02T05:30:20.830Z,1.10
2018-12-02T05:32:48.438Z,1.30
2018-12-02T05:35:15.822Z,1.00
2018-12-02T05:37:43.296Z,1.30
2018-12-02T05:40:11.076Z,1.23
2018-12-02T05:42:38.502Z,1.30
2018-12-02T05:45:05.917Z,1.20
2018-12-02T05:47:33.531Z,1.20
2018-12-02T05:50:01.227Z,1.30
2018-12-02T05:52:28.914Z,1.50
2018-12-02T05:54:56.254Z,1.20
2018-12-02T05:57:23.739Z,1.43
2018-12-02T05:59:51.305Z,1.23
2018-12-02T06:02:18.994Z,1.60
2018-12-02T06:04:46.595Z,1.20
2018-12-02T06:07:14.007Z,1.00
2018-12-02T06:09:41.479Z,1.30
2018-12-02T06:12:08.929Z,1.40
2018-12-02T06:14:36.365Z,1.33
2018-12-02T06:17:03.795Z,1.60
2018-12-02T06:19:31.704Z,1.27
2018-12-02T06:21:59.099Z,1.50
2018-12-02T06:24:26.505Z,1.23
2018-12-02T06:26:53.909Z,1.30
2018-12-02T06:29:21.263Z,1.47
2018-12-02T06:31:49.103Z,1.20
2018-12-02T06:34:16.552Z,1.60
2018-12-02T06:36:44.027Z,1.20
2018-12-02T06:39:11.611Z,1.30
2018-12-02T06:41:39.040Z,1.37
2018-12-02T06:44:06.407Z,1.67
2018-12-02T06:46:33.834Z,1.43
2018-12-02T06:49:01.530Z,1.40
2018-12-02T06:51:28.845Z,1.30
2018-12-02T06:53:56.256Z,1.70
2018-12-02T06:56:24.062Z,1.50
2018-12-02T06:58:51.471Z,1.23
2018-12-02T07:01:18.964Z,1.47
2018-12-02T07:03:46.514Z,1.40
2018-12-02T07:06:13.930Z,1.37
2018-12-02T07:08:41.513Z,1.63
2018-12-02T07:11:09.003Z,1.60
2018-12-02T07:13:36.322Z,1.60
2018-12-02T07:16:03.714Z,1.67
2018-12-02T07:18:31.365Z,1.50
2018-12-02T07:20:58.768Z,1.63
2018-12-02T07:23:26.276Z,1.67
2018-12-02T07:25:53.933Z,1.60
2018-12-02T07:28:21.463Z,1.50
2018-12-02T07:30:49.230Z,1.70
2018-12-02T07:33:16.663Z,1.90
2018-12-02T07:35:44.128Z,1.77
2018-12-02T07:38:12.000Z,1.73
2018-12-02T07:40:39.672Z,1.63
2018-12-02T07:43:06.976Z,1.73
2018-12-02T07:45:34.329Z,1.43
2018-12-02T07:48:01.732Z,1.60
2018-12-02T07:50:29.454Z,1.43
2018-12-02T07:53:02.746Z,1.60
2018-12-02T07:55:30.188Z,1.77
2018-12-02T07:57:57.774Z,1.70
2018-12-02T08:00:25.146Z,1.90
2018-12-02T08:02:52.597Z,1.30
2018-12-02T08:05:20.678Z,1.93
2018-12-02T08:07:48.073Z,1.50
2018-12-02T08:10:15.405Z,1.20
2018-12-02T08:12:42.821Z,1.80
2018-12-02T08:15:10.303Z,1.40
2018-12-02T08:17:37.759Z,1.40
2018-12-02T08:20:05.203Z,1.77
2018-12-02T08:22:32.700Z,1.60
2018-12-02T08:25:00.173Z,1.60
2018-12-02T08:27:27.614Z,1.30
2018-12-02T08:29:55.112Z,1.23
2018-12-02T08:32:22.614Z,1.40
2018-12-02T08:34:50.183Z,1.63
2018-12-02T08:37:17.663Z,1.33
2018-12-02T08:39:45.660Z,1.77
2018-12-02T08:42:13.695Z,1.20
2018-12-02T08:44:41.248Z,1.30
2018-12-02T08:47:08.687Z,1.40
2018-12-02T08:49:36.307Z,1.50
2018-12-02T08:52:03.947Z,1.40
2018-12-02T08:54:31.372Z,1.30
2018-12-02T08:56:58.759Z,1.37
2018-12-02T08:59:26.346Z,1.30
2018-12-02T09:01:53.782Z,1.50
2018-12-02T09:04:21.704Z,1.47
2018-12-02T09:06:49.549Z,1.10
2018-12-02T09:09:16.934Z,1.23
2018-12-02T09:11:44.877Z,1.50
2018-12-02T09:14:12.635Z,1.27
2018-12-02T09:16:40.717Z,1.60
2018-12-02T09:19:08.241Z,1.47
2018-12-02T09:21:35.560Z,1.33
2018-12-02T09:24:02.968Z,1.37
2018-12-02T09:26:32.429Z,1.20
2018-12-02T09:28:59.738Z,1.30
2018-12-02T09:31:27.042Z,1.10
2018-12-02T09:33:54.656Z,1.20
2018-12-02T09:36:22.072Z,1.30
2018-12-02T09:38:49.460Z,1.20
2018-12-02T09:41:16.883Z,0.90
2018-12-02T09:43:44.735Z,0.97
2018-12-02T09:46:12.190Z,0.80
2018-12-02T09:48:39.623Z,1.03
2018-12-02T09:51:07.165Z,1.20
2018-12-02T09:53:34.609Z,1.13
2018-12-02T09:56:02.398Z,1.33
2018-12-02T09:58:30.368Z,1.30
2018-12-02T10:00:57.891Z,1.20
2018-12-02T10:03:25.514Z,1.13
2018-12-02T10:05:53.412Z,1.00
2018-12-02T10:08:20.815Z,1.10
2018-12-02T10:10:48.917Z,1.00
2018-12-02T10:13:16.795Z,1.23
2018-12-02T10:15:44.199Z,0.90
2018-12-02T10:18:12.064Z,0.90
2018-12-02T10:20:39.623Z,1.20
2018-12-02T10:23:06.983Z,0.87
2018-12-02T10:25:34.562Z,1.37
2018-12-02T10:28:02.441Z,1.20
2018-12-02T10:30:29.835Z,1.00
2018-12-02T10:32:57.503Z,1.27
2018-12-02T10:35:25.074Z,0.70
2018-12-02T10:37:52.441Z,1.13
2018-12-02T10:40:19.902Z,1.10
2018-12-02T10:42:47.710Z,0.90
2018-12-02T10:45:15.363Z,1.20
2018-12-02T10:47:42.803Z,0.93
2018-12-02T10:50:10.200Z,1.17
2018-12-02T10:52:38.756Z,0.80
2018-12-02T10:55:06.422Z,1.00
2018-12-02T10:57:33.884Z,1.37
2018-12-02T11:00:01.238Z,0.87
2018-12-02T11:02:29.972Z,1.13
2018-12-02T11:04:57.295Z,1.27
2018-12-02T11:07:24.725Z,1.10
2018-12-02T11:09:52.811Z,1.33
2018-12-02T11:12:20.512Z,1.07
2018-12-02T11:14:47.960Z,1.10
2018-12-02T11:17:15.254Z,1.07
2018-12-02T11:19:42.600Z,1.20
2018-12-02T11:22:09.982Z,1.30
2018-12-02T11:24:37.753Z,1.13
2018-12-02T11:27:05.236Z,1.00
2018-12-02T11:29:32.654Z,1.13
2018-12-02T11:32:00.018Z,1.03
2018-12-02T11:34:27.901Z,1.00
2018-12-02T11:36:55.322Z,1.00
2018-12-02T11:39:22.820Z,0.90
2018-12-02T11:41:50.193Z,1.13
2018-12-02T11:44:17.475Z,0.87
2018-12-02T11:46:45.296Z,0.70
2018-12-02T11:49:12.718Z,0.93
2018-12-02T11:51:40.529Z,0.83
2018-12-02T11:54:07.974Z,1.13
2018-12-02T11:56:35.419Z,0.70
2018-12-02T11:59:02.840Z,1.10
2018-12-02T12:01:30.311Z,0.97
2018-12-02T12:03:57.810Z,0.83
2018-12-02T12:06:25.224Z,1.10
2018-12-02T12:08:52.617Z,1.00
2018-12-02T12:11:19.914Z,1.10
2018-12-02T12:13:47.914Z,1.00
2018-12-02T12:16:15.331Z,0.67
2018-12-02T12:18:43.176Z,1.20
2018-12-02T12:21:11.000Z,0.57
2018-12-02T12:23:38.456Z,0.77
2018-12-02T12:26:05.803Z,1.00
2018-12-02T12:28:33.234Z,0.77
2018-12-02T12:31:00.651Z,0.87
2018-12-02T12:33:27.975Z,1.00
2018-12-02T12:35:55.343Z,0.77
2018-12-02T12:38:22.802Z,0.97
2018-12-02T12:40:50.161Z,0.77
2018-12-02T12:43:17.766Z,0.80
2018-12-02T12:45:45.248Z,0.63
2018-12-02T12:48:12.734Z,1.00
2018-12-02T12:50:40.229Z,0.60
2018-12-02T12:53:08.009Z,0.87
2018-12-02T12:55:35.419Z,0.73
2018-12-02T12:58:02.794Z,0.90
2018-12-02T13:00:30.235Z,1.13
2018-12-02T13:02:58.059Z,0.63
2018-12-02T13:05:26.381Z,0.60
2018-12-02T13:07:53.858Z,0.73
2018-12-02T13:10:21.735Z,0.90
2018-12-02T13:12:49.141Z,1.10
2018-12-02T13:15:16.468Z,0.53
2018-12-02T13:17:43.827Z,0.80
2018-12-02T13:20:11.249Z,0.70
2018-12-02T13:22:39.027Z,0.83
2018-12-02T13:25:06.836Z,0.60
2018-12-02T13:27:34.154Z,1.00
2018-12-02T13:30:01.715Z,0.90
2018-12-02T13:32:29.244Z,0.73
2018-12-02T13:34:57.088Z,0.80
2018-12-02T13:37:24.736Z,0.80
2018-12-02T13:39:52.240Z,0.70
2018-12-02T13:42:19.554Z,0.77
2018-12-02T13:44:47.004Z,0.83
2018-12-02T13:47:14.597Z,0.87
2018-12-02T13:49:42.106Z,0.80
2018-12-02T13:52:09.906Z,0.87
2018-12-02T13:54:39.988Z,0.90
2018-12-02T13:57:07.704Z,0.50
2018-12-02T13:59:35.205Z,0.80
2018-12-02T14:02:02.629Z,1.00
2018-12-02T14:04:30.226Z,1.03
2018-12-02T14:06:57.769Z,0.90
2018-12-02T14:09:25.345Z,0.80
2018-12-02T14:11:52.745Z,0.93
2018-12-02T14:14:20.922Z,0.80
2018-12-02T14:16:48.756Z,0.70
2018-12-02T14:19:16.755Z,0.87
2018-12-02T14:21:44.226Z,1.00
2018-12-02T14:24:11.727Z,0.77
2018-12-02T14:26:39.209Z,0.70
2018-12-02T14:29:06.631Z,0.60
2018-12-02T14:31:34.021Z,0.80
2018-12-02T14:34:52.465Z,0.90
2018-12-02T14:37:19.960Z,0.83
2018-12-02T14:39:47.318Z,1.00
2018-12-02T14:42:16.689Z,0.80
2018-12-02T14:44:44.121Z,1.17
2018-12-02T14:47:11.620Z,0.70
2018-12-02T14:49:38.994Z,0.97
2018-12-02T14:52:06.394Z,0.87
2018-12-02T14:54:33.693Z,1.00
2018-12-02T14:57:01.233Z,0.80
2018-12-02T14:59:28.976Z,1.00
2018-12-02T15:01:56.435Z,0.73
2018-12-02T15:04:23.878Z,0.73
2018-12-02T15:06:51.269Z,0.93
2018-12-02T15:09:19.346Z,0.70
2018-12-02T15:11:48.949Z,1.00
2018-12-02T15:14:16.349Z,0.63
2018-12-02T15:16:43.912Z,1.00
2018-12-02T15:19:11.324Z,0.80
2018-12-02T15:21:39.088Z,0.60
2018-12-02T15:24:07.076Z,0.60
2018-12-02T15:26:34.495Z,1.00
2018-12-02T15:29:02.110Z,1.00
2018-12-02T15:31:29.356Z,0.83
2018-12-02T15:33:56.882Z,0.80
2018-12-02T15:36:24.576Z,0.80
2018-12-02T15:38:52.187Z,0.77
2018-12-02T15:41:19.561Z,0.67
2018-12-02T15:43:47.023Z,0.70
2018-12-02T15:46:14.783Z,0.90
2018-12-02T15:48:42.170Z,0.87
2018-12-02T15:51:10.361Z,0.70
2018-12-02T15:53:37.749Z,0.70
2018-12-02T15:56:05.386Z,0.70
2018-12-02T15:58:32.837Z,0.90
2018-12-02T16:01:00.238Z,0.87
2018-12-02T16:03:27.911Z,0.70
2018-12-02T16:05:55.289Z,0.60
2018-12-02T16:08:22.637Z,0.80
2018-12-02T16:10:49.971Z,0.80
2018-12-02T16:13:17.413Z,0.60
2018-12-02T16:15:44.880Z,0.80
2018-12-02T16:18:12.569Z,0.80
2018-12-02T16:20:40.820Z,1.10
2018-12-02T16:23:08.671Z,0.60
2018-12-02T16:25:36.080Z,0.60
2018-12-02T16:28:03.793Z,0.50
2018-12-02T16:30:31.200Z,0.70
2018-12-02T16:32:58.582Z,0.67
2018-12-02T16:35:26.066Z,0.70
2018-12-02T16:37:53.513Z,0.63
2018-12-02T16:40:20.935Z,0.80
2018-12-02T16:42:48.368Z,0.60
2018-12-02T16:45:16.092Z,0.93
2018-12-02T16:47:43.486Z,0.70
2018-12-02T16:50:10.834Z,0.90
2018-12-02T16:52:38.410Z,0.67
2018-12-02T16:55:06.042Z,0.70
2018-12-02T16:57:33.480Z,0.80
2018-12-02T17:00:02.029Z,0.87
2018-12-02T17:02:30.724Z,0.90
2018-12-02T17:04:58.200Z,0.67
2018-12-02T17:07:25.900Z,0.90
2018-12-02T17:09:53.195Z,0.80
2018-12-02T17:12:20.969Z,0.63
2018-12-02T17:14:48.640Z,0.30
2018-12-02T17:17:16.078Z,0.80
2018-12-02T17:19:43.537Z,0.60
2018-12-02T17:22:11.534Z,0.80
2018-12-02T17:24:39.130Z,0.73
2018-12-02T17:27:06.497Z,0.80
2018-12-02T17:29:34.149Z,0.90
2018-12-02T17:32:01.492Z,1.10
2018-12-02T17:34:28.917Z,0.63
2018-12-02T17:36:56.342Z,1.00
2018-12-02T17:39:23.802Z,1.10
2018-12-02T17:41:51.474Z,0.93
2018-12-02T17:44:18.733Z,0.73
2018-12-02T17:46:46.665Z,0.60
2018-12-02T17:49:14.054Z,0.70
2018-12-02T17:51:41.604Z,1.03
2018-12-02T17:54:09.064Z,1.10
2018-12-02T17:56:36.385Z,0.80
2018-12-02T17:59:03.909Z,0.70
2018-12-02T18:01:31.683Z,1.00
2018-12-02T18:03:59.645Z,1.00
2018-12-02T18:06:27.231Z,1.03
2018-12-02T18:08:55.185Z,1.10
2018-12-02T18:11:22.606Z,0.90
2018-12-02T18:13:50.014Z,1.00
2018-12-02T18:16:17.447Z,1.20
2018-12-02T18:18:45.008Z,0.63
2018-12-02T18:21:12.363Z,1.03
2018-12-02T18:23:39.805Z,1.20
2018-12-02T18:26:07.112Z,1.10
2018-12-02T18:28:34.849Z,1.13
2018-12-02T18:31:02.139Z,1.40
2018-12-02T18:33:29.491Z,1.10
2018-12-02T18:35:56.805Z,1.00
2018-12-02T18:38:24.125Z,0.90
2018-12-02T18:40:51.391Z,1.57
2018-12-02T18:43:18.704Z,0.90
2018-12-02T18:45:46.423Z,1.40
2018-12-02T18:48:14.003Z,1.37
2018-12-02T18:50:42.025Z,1.03
2018-12-02T18:53:09.618Z,1.13
2018-12-02T18:55:37.298Z,1.27
2018-12-02T18:58:04.797Z,1.07
2018-12-02T19:00:45.276Z,1.07
2018-12-02T19:03:12.839Z,1.50
2018-12-02T19:05:40.402Z,1.37
2018-12-02T19:08:07.674Z,1.30
2018-12-02T19:10:35.106Z,1.10
2018-12-02T19:13:02.416Z,1.40
2018-12-02T19:15:30.061Z,1.17
2018-12-02T19:17:57.750Z,1.20
2018-12-02T19:20:25.617Z,1.43
2018-12-02T19:22:52.974Z,1.23
2018-12-02T19:25:21.054Z,1.13
2018-12-02T19:27:48.433Z,1.50
2018-12-02T19:30:15.706Z,1.20
2018-12-02T19:32:43.326Z,1.50
2018-12-02T19:35:10.667Z,1.40
2018-12-02T19:37:38.246Z,1.27
2018-12-02T19:40:05.756Z,1.63
2018-12-02T19:42:33.530Z,1.40
2018-12-02T19:45:00.956Z,1.33
2018-12-02T19:47:28.269Z,1.13
2018-12-02T19:49:55.883Z,1.20
2018-12-02T19:52:23.668Z,1.50
2018-12-02T19:54:51.083Z,1.27
2018-12-02T19:57:18.323Z,1.33
2018-12-02T19:59:45.618Z,1.60
2018-12-02T20:02:13.101Z,1.50
2018-12-02T20:04:40.507Z,1.33
2018-12-02T20:07:07.867Z,1.70
2018-12-02T20:09:35.216Z,1.37
2018-12-02T20:12:02.609Z,1.20
2018-12-02T20:14:29.983Z,1.40
2018-12-02T20:16:57.418Z,1.30
2018-12-02T20:19:42.525Z,1.43
2018-12-02T20:22:09.851Z,1.60
2018-12-02T20:24:41.439Z,1.70
2018-12-02T20:27:09.142Z,1.70
2018-12-02T20:29:46.502Z,1.73
2018-12-02T20:32:14.002Z,1.50
2018-12-02T20:34:41.581Z,1.97
2018-12-02T20:37:08.856Z,1.63
2018-12-02T20:39:36.215Z,1.60
2018-12-02T20:42:06.677Z,1.70
2018-12-02T20:44:34.276Z,1.73
2018-12-02T20:47:01.672Z,1.80
2018-12-02T20:49:29.019Z,1.50
2018-12-02T20:51:56.789Z,1.47
2018-12-02T20:54:24.174Z,1.70
2018-12-02T20:56:51.665Z,1.83
2018-12-02T20:59:19.229Z,1.73
2018-12-02T21:01:46.743Z,1.60
2018-12-02T21:04:14.237Z,1.60
2018-12-02T21:06:41.517Z,1.97
2018-12-02T21:09:08.936Z,1.57
2018-12-02T21:11:40.508Z,1.67
2018-12-02T21:14:06.036Z,1.93
2018-12-02T21:16:33.432Z,1.83
2018-12-02T21:19:01.014Z,1.90
2018-12-02T21:21:28.407Z,1.47
2018-12-02T21:23:55.829Z,1.50
2018-12-02T21:26:23.334Z,1.30
2018-12-02T21:28:50.667Z,1.87
2018-12-02T21:31:18.391Z,1.53
2018-12-02T21:33:48.749Z,1.70
2018-12-02T21:36:16.866Z,1.50
2018-12-02T21:38:44.596Z,1.67
2018-12-02T21:41:12.319Z,1.57
2018-12-02T21:43:39.948Z,1.60
2018-12-02T21:46:07.635Z,1.40
2018-12-02T21:48:35.072Z,1.20
2018-12-02T21:51:02.735Z,1.27
2018-12-02T21:53:30.160Z,1.50
2018-12-02T21:55:57.871Z,1.73
2018-12-02T21:58:26.109Z,1.60
2018-12-02T22:01:11.171Z,1.30
2018-12-02T22:03:38.584Z,1.90
2018-12-02T22:06:06.143Z,1.60
2018-12-02T22:08:33.533Z,1.60
2018-12-02T22:11:00.939Z,1.00
2018-12-02T22:13:29.272Z,1.40
2018-12-02T22:15:58.469Z,1.67
2018-12-02T22:18:27.875Z,1.53
2018-12-02T22:20:57.044Z,1.37
2018-12-02T22:23:26.327Z,1.30
2018-12-02T22:25:55.605Z,1.40
2018-12-02T22:28:25.271Z,1.60
2018-12-02T22:30:54.482Z,1.20
2018-12-02T22:33:23.644Z,1.40
2018-12-02T22:35:51.808Z,1.10
2018-12-02T22:38:21.010Z,1.50
2018-12-02T22:40:48.356Z,1.60
2018-12-02T22:43:15.833Z,1.13
2018-12-02T22:45:43.274Z,1.60
2018-12-02T22:48:10.718Z,1.30
2018-12-02T22:50:38.246Z,1.07
2018-12-02T22:53:05.613Z,2.00
2018-12-02T22:55:32.943Z,1.20
2018-12-02T22:58:00.301Z,1.30
2018-12-02T23:00:45.563Z,1.20
2018-12-02T23:03:16.724Z,0.93
2018-12-02T23:05:44.187Z,1.20
2018-12-02T23:08:11.636Z,1.30
2018-12-02T23:10:39.211Z,1.40
2018-12-02T23:13:06.596Z,1.07
2018-12-02T23:15:34.409Z,1.20
2018-12-02T23:18:01.848Z,1.30
2018-12-02T23:20:29.820Z,1.00
2018-12-02T23:22:57.607Z,1.30
2018-12-02T23:25:25.029Z,1.20
2018-12-02T23:27:52.800Z,1.20
2018-12-02T23:30:20.597Z,1.13
2018-12-02T23:32:47.964Z,1.20
2018-12-02T23:35:15.464Z,0.93
2018-12-02T23:37:42.676Z,1.50
2018-12-02T23:40:09.947Z,1.20
2018-12-02T23:42:37.362Z,1.30
2018-12-02T23:45:04.704Z,1.00
2018-12-02T23:47:32.000Z,1.17
2018-12-02T23:49:59.284Z,1.00
2018-12-02T23:52:26.608Z,1.00
2018-12-02T23:54:54.074Z,1.30
2018-12-02T23:57:21.478Z,1.37
2018-12-02T23:59:48.941Z,1.00
